Time;durP1;ratioP1;P1;durP2;ratioP2;P2;SDS_P1;SDS_P2;PMS_P1;PMS_P2;Temp;Humidity;BMP_temperature;BMP_pressure;BME280_temperature;BME280_humidity;BME280_pressure;Samples;Min_cycle;Max_cycle;Signal;HPM_P1;HPM_P2
2022/02/25 00:00:15;;;;;;;0.60;0.40;;;6.30;1.00;;;;;;5099640;28;20182;-61
2022/02/25 00:02:41;;;;;;;0.67;0.37;;;6.40;1.00;;;;;;5104311;28;20178;-61
2022/02/25 00:05:07;;;;;;;0.70;0.50;;;6.40;1.00;;;;;;5102701;28;20448;-61
2022/02/25 00:07:33;;;;;;;0.73;0.73;;;6.30;1.00;;;;;;5103038;28;20320;-60
2022/02/25 00:09:59;;;;;;;0.73;0.73;;;;;;;;;;5103460;28;20903;-62
2022/02/25 00:12:24;;;;;;;1.90;0.50;;;6.30;1.00;;;;;;5102103;28;20216;-60
2022/02/25 00:14:50;;;;;;;0.77;0.53;;;;;;;;;;5093377;28;20457;-61
2022/02/25 00:17:16;;;;;;;1.37;0.90;;;;;;;;;;5087871;28;20262;-61
2022/02/25 00:19:42;;;;;;;0.60;0.60;;;6.50;1.00;;;;;;5099278;28;20775;-63
2022/02/25 00:22:07;;;;;;;0.70;0.43;;;6.50;1.00;;;;;;5097735;28;20492;-61
2022/02/25 00:24:33;;;;;;;0.70;0.50;;;;;;;;;;5102882;28;20170;-62
2022/02/25 00:26:59;;;;;;;0.80;0.50;;;6.30;1.00;;;;;;5100979;28;20194;-62
2022/02/25 00:29:24;;;;;;;0.50;0.50;;;6.20;1.00;;;;;;5099389;28;20924;-62
2022/02/25 00:31:50;;;;;;;0.60;0.60;;;6.20;1.00;;;;;;5099962;28;20191;-60
2022/02/25 00:34:15;;;;;;;1.30;1.00;;;6.20;1.00;;;;;;5105513;28;20183;-62
2022/02/25 00:36:41;;;;;;;0.73;0.70;;;6.30;1.00;;;;;;5107574;28;20232;-60
2022/02/25 00:39:06;;;;;;;0.60;0.60;;;6.30;1.00;;;;;;5098211;28;20185;-60
2022/02/25 00:41:32;;;;;;;0.77;0.73;;;6.40;1.00;;;;;;5103174;28;20243;-60
2022/02/25 00:43:57;;;;;;;1.10;1.03;;;6.20;1.00;;;;;;5099551;28;20660;-60
2022/02/25 00:46:23;;;;;;;1.10;0.90;;;;;;;;;;5097674;28;20182;-61
2022/02/25 00:48:49;;;;;;;0.83;0.80;;;6.00;1.00;;;;;;5104398;28;20201;-60
2022/02/25 00:51:15;;;;;;;1.20;0.77;;;6.10;1.00;;;;;;5103358;28;20480;-61
2022/02/25 00:53:41;;;;;;;1.60;0.80;;;6.30;1.00;;;;;;5104818;28;20481;-61
2022/02/25 00:58:32;;;;;;;2.50;1.10;;;6.20;1.00;;;;;;5098931;28;20241;-61
2022/02/25 01:00:58;;;;;;;2.00;1.23;;;6.10;1.00;;;;;;5105953;28;20497;-62
2022/02/25 01:03:24;;;;;;;1.60;1.07;;;6.00;1.00;;;;;;5103384;28;20665;-61
2022/02/25 01:05:50;;;;;;;0.83;0.83;;;6.10;1.00;;;;;;5105350;28;21080;-61
2022/02/25 01:08:15;;;;;;;1.03;0.97;;;6.10;1.00;;;;;;5107122;28;20187;-61
2022/02/25 01:10:41;;;;;;;1.33;1.10;;;;;;;;;;5106625;28;20613;-61
2022/02/25 01:13:07;;;;;;;1.23;1.17;;;6.00;1.00;;;;;;5109872;28;20745;-60
2022/02/25 01:15:33;;;;;;;1.40;1.30;;;6.10;1.00;;;;;;5110563;28;20486;-61
2022/02/25 01:17:59;;;;;;;1.97;1.57;;;;;;;;;;5111817;28;20588;-60
2022/02/25 01:20:25;;;;;;;3.00;0.90;;;6.00;1.00;;;;;;5105863;28;20469;-61
2022/02/25 01:22:51;;;;;;;1.33;1.23;;;6.10;1.00;;;;;;5104523;28;20964;-62
2022/02/25 01:25:17;;;;;;;2.10;1.10;;;6.00;1.00;;;;;;5106878;28;20474;-60
2022/02/25 01:27:42;;;;;;;0.80;0.80;;;6.10;1.00;;;;;;5092182;28;20194;-62
2022/02/25 01:30:10;;;;;;;1.87;0.90;;;6.00;1.00;;;;;;5104219;28;20186;-60
2022/02/25 01:32:36;;;;;;;1.30;1.20;;;5.90;1.00;;;;;;5106922;28;20194;-61
2022/02/25 01:35:02;;;;;;;1.70;1.47;;;5.90;1.00;;;;;;5103977;28;20447;-62
2022/02/25 01:37:28;;;;;;;3.23;1.27;;;5.80;1.00;;;;;;5105657;28;20497;-61
2022/02/25 01:39:54;;;;;;;1.37;1.27;;;5.80;1.00;;;;;;5109449;28;20439;-60
2022/02/25 01:42:19;;;;;;;3.80;2.57;;;5.80;1.00;;;;;;5103222;28;20178;-61
2022/02/25 01:44:46;;;;;;;2.33;1.70;;;;;;;;;;5098515;28;20436;-61
2022/02/25 01:47:12;;;;;;;2.00;1.90;;;5.70;1.00;;;;;;5110975;28;20224;-60
2022/02/25 01:49:39;;;;;;;1.60;1.50;;;5.70;1.00;;;;;;5107995;28;20443;-61
2022/02/25 01:52:10;;;;;;;1.73;1.40;;;5.60;1.00;;;;;;5110390;28;20526;-60
2022/02/25 01:54:35;;;;;;;3.93;1.63;;;5.60;1.00;;;;;;5082201;28;20475;-59
2022/02/25 01:57:02;;;;;;;4.13;1.57;;;5.70;1.00;;;;;;5110582;28;20959;-59
2022/02/25 01:59:29;;;;;;;1.60;1.50;;;5.60;1.00;;;;;;5095071;28;20226;-62
2022/02/25 02:01:55;;;;;;;1.37;1.27;;;5.70;1.00;;;;;;5106483;28;20539;-61
2022/02/25 02:04:21;;;;;;;1.50;1.40;;;5.70;1.00;;;;;;5101807;28;20581;-61
2022/02/25 02:06:47;;;;;;;2.70;1.73;;;;;;;;;;5109225;28;20686;-60
2022/02/25 02:09:13;;;;;;;2.33;1.67;;;;;;;;;;5106075;28;20465;-61
2022/02/25 02:11:45;;;;;;;4.10;1.77;;;5.50;1.00;;;;;;5102338;28;20478;-61
2022/02/25 02:14:13;;;;;;;1.70;1.60;;;5.40;1.00;;;;;;5104848;28;20443;-60
2022/02/25 02:16:40;;;;;;;1.60;1.33;;;5.30;1.00;;;;;;5110694;28;20482;-61
2022/02/25 02:19:06;;;;;;;1.40;1.30;;;7.10;1.00;;;;;;5099196;28;20476;-61
2022/02/25 02:21:38;;;;;;;1.80;1.10;;;5.40;1.00;;;;;;5101434;28;20786;-60
2022/02/25 02:24:04;;;;;;;3.43;1.70;;;5.40;1.00;;;;;;5110025;28;20444;-60
2022/02/25 02:26:30;;;;;;;1.70;1.60;;;5.30;1.00;;;;;;5107636;28;21064;-61
2022/02/25 02:28:56;;;;;;;1.93;1.47;;;5.40;1.00;;;;;;5108400;28;20452;-61
2022/02/25 02:31:22;;;;;;;2.77;1.47;;;5.30;1.00;;;;;;5104425;28;20566;-61
2022/02/25 02:33:48;;;;;;;1.27;1.17;;;5.40;1.00;;;;;;5104980;28;20186;-60
2022/02/25 02:36:13;;;;;;;2.47;1.50;;;5.40;1.00;;;;;;5105592;28;20221;-61
2022/02/25 02:38:39;;;;;;;1.60;1.50;;;5.30;1.00;;;;;;5109387;28;20267;-61
2022/02/25 02:41:07;;;;;;;1.50;1.40;;;5.30;1.00;;;;;;5107872;28;20442;-61
2022/02/25 02:43:34;;;;;;;2.20;1.47;;;5.30;1.00;;;;;;5086102;28;20805;-62
2022/02/25 02:46:00;;;;;;;2.10;1.50;;;5.30;1.00;;;;;;5096993;28;20476;-60
2022/02/25 02:48:26;;;;;;;2.80;2.03;;;5.40;1.00;;;;;;5108553;28;20468;-61
2022/02/25 02:50:51;;;;;;;2.30;1.93;;;5.60;1.00;;;;;;5108540;28;20439;-60
2022/02/25 02:53:17;;;;;;;2.00;1.60;;;5.80;1.00;;;;;;5098607;28;20587;-61
2022/02/25 02:55:43;;;;;;;2.77;1.57;;;5.70;1.00;;;;;;5102973;28;20194;-60
2022/02/25 02:58:09;;;;;;;2.60;1.50;;;5.70;1.00;;;;;;5105406;28;20272;-62
2022/02/25 03:00:37;;;;;;;1.40;1.30;;;5.60;1.00;;;;;;5098728;28;21183;-61
2022/02/25 03:03:02;;;;;;;1.93;1.80;;;8.70;1.00;;;;;;5109065;28;20436;-62
2022/02/25 03:05:28;;;;;;;1.37;1.27;;;5.70;1.00;;;;;;5105605;28;20437;-61
2022/02/25 03:07:54;;;;;;;2.63;1.60;;;5.80;1.00;;;;;;5101041;28;20186;-60
2022/02/25 03:10:19;;;;;;;1.97;1.77;;;5.90;1.00;;;;;;5103984;28;20191;-62
2022/02/25 03:12:45;;;;;;;1.40;1.30;;;5.90;1.00;;;;;;5099639;28;20194;-62
2022/02/25 03:15:13;;;;;;;1.80;1.23;;;5.90;1.00;;;;;;5107437;28;20195;-61
2022/02/25 03:17:39;;;;;;;1.60;1.43;;;;;;;;;;5100657;28;20238;-60
2022/02/25 03:20:06;;;;;;;1.40;1.30;;;5.70;1.00;;;;;;5107048;28;20474;-61
2022/02/25 03:22:33;;;;;;;2.23;1.87;;;5.80;1.00;;;;;;5106143;28;20527;-61
2022/02/25 03:24:59;;;;;;;2.00;1.80;;;5.80;1.00;;;;;;5103181;28;20475;-60
2022/02/25 03:27:25;;;;;;;2.67;1.90;;;5.60;1.00;;;;;;5095839;28;20450;-61
2022/02/25 03:29:51;;;;;;;2.27;1.83;;;5.70;1.00;;;;;;5101849;28;20440;-61
2022/02/25 03:32:17;;;;;;;2.20;2.00;;;5.70;1.00;;;;;;5110136;28;20498;-62
2022/02/25 03:34:43;;;;;;;2.30;1.87;;;5.70;1.00;;;;;;5104940;28;20424;-61
2022/02/25 03:37:09;;;;;;;3.93;2.20;;;5.60;1.00;;;;;;5102061;28;20461;-60
2022/02/25 03:39:34;;;;;;;1.97;1.40;;;5.60;1.00;;;;;;5106282;28;20987;-61
2022/02/25 03:42:00;;;;;;;1.70;1.60;;;5.50;1.00;;;;;;5100437;28;20636;-61
2022/02/25 03:44:26;;;;;;;4.87;2.20;;;5.40;1.00;;;;;;5102139;28;20236;-61
2022/02/25 03:46:51;;;;;;;2.93;2.20;;;5.40;1.00;;;;;;5095625;28;20232;-61
2022/02/25 03:49:17;;;;;;;3.40;2.07;;;5.40;1.00;;;;;;5107182;28;20186;-61
2022/02/25 03:51:43;;;;;;;2.43;2.23;;;5.30;1.00;;;;;;5100996;28;20186;-61
2022/02/25 03:54:10;;;;;;;2.77;2.03;;;;;;;;;;5104529;28;20473;-61
2022/02/25 03:56:35;;;;;;;2.70;2.50;;;5.30;1.00;;;;;;5102594;28;20471;-60
2022/02/25 03:59:01;;;;;;;2.10;2.00;;;5.20;1.00;;;;;;5099023;28;20504;-61
2022/02/25 04:01:27;;;;;;;3.17;2.97;;;5.00;1.00;;;;;;5106236;28;20859;-61
2022/02/25 04:03:52;;;;;;;3.17;2.57;;;5.20;1.00;;;;;;5103089;28;20191;-61
2022/02/25 04:06:19;;;;;;;2.80;2.60;;;5.10;1.00;;;;;;5111001;28;20185;-62
2022/02/25 04:08:44;;;;;;;4.60;2.90;;;5.10;1.00;;;;;;5109516;28;20482;-61
2022/02/25 04:11:10;;;;;;;4.17;2.50;;;4.90;1.00;;;;;;5110654;28;20532;-62
2022/02/25 04:13:37;;;;;;;3.20;2.97;;;5.10;1.00;;;;;;5104841;28;20200;-60
2022/02/25 04:16:06;;;;;;;3.60;2.40;;;5.10;1.00;;;;;;5103773;28;20452;-62
2022/02/25 04:18:32;;;;;;;2.77;2.57;;;5.10;1.00;;;;;;5099015;28;20493;-61
2022/02/25 04:20:58;;;;;;;3.07;2.77;;;5.00;1.00;;;;;;5106737;28;20576;-61
2022/02/25 04:23:24;;;;;;;3.80;3.07;;;;;;;;;;5110515;28;20980;-60
2022/02/25 04:25:50;;;;;;;2.80;2.50;;;5.00;1.00;;;;;;5106454;28;20658;-61
2022/02/25 04:28:16;;;;;;;3.20;2.47;;;5.00;1.00;;;;;;5108559;28;20475;-61
2022/02/25 04:30:42;;;;;;;3.97;2.73;;;5.00;1.00;;;;;;5103881;28;20505;-61
2022/02/25 04:33:08;;;;;;;3.17;2.60;;;4.90;1.00;;;;;;5101730;28;20440;-62
2022/02/25 04:35:34;;;;;;;5.50;2.97;;;5.00;1.00;;;;;;5085314;28;20440;-61
2022/02/25 04:38:00;;;;;;;2.83;2.63;;;4.90;1.00;;;;;;5105198;28;20648;-61
2022/02/25 04:40:26;;;;;;;3.27;2.33;;;4.90;1.00;;;;;;5102955;28;20444;-61
2022/02/25 04:42:52;;;;;;;2.40;2.20;;;4.90;1.00;;;;;;5102310;28;20798;-61
2022/02/25 04:45:17;;;;;;;2.67;2.47;;;4.90;1.00;;;;;;5104688;28;20437;-61
2022/02/25 04:47:43;;;;;;;2.13;1.93;;;4.90;1.00;;;;;;5097932;28;20190;-62
2022/02/25 04:50:10;;;;;;;2.83;2.43;;;4.90;1.00;;;;;;5102534;28;20244;-62
2022/02/25 04:52:36;;;;;;;2.50;2.30;;;4.90;1.00;;;;;;5108363;28;20229;-61
2022/02/25 04:55:02;;;;;;;3.93;2.80;;;4.80;1.00;;;;;;5094681;28;20515;-61
2022/02/25 04:57:27;;;;;;;2.70;2.20;;;4.80;1.00;;;;;;5103732;28;20653;-61
2022/02/25 04:59:53;;;;;;;4.60;2.73;;;;;;;;;;5111329;28;20467;-62
2022/02/25 05:02:19;;;;;;;3.63;2.93;;;4.80;1.00;;;;;;5100714;28;20637;-59
2022/02/25 05:04:44;;;;;;;2.40;2.20;;;4.80;1.00;;;;;;5102502;28;20437;-58
2022/02/25 05:07:10;;;;;;;2.83;2.30;;;;;;;;;;5097411;28;20186;-58
2022/02/25 05:09:36;;;;;;;3.23;2.50;;;4.80;1.00;;;;;;5098171;28;20192;-59
2022/02/25 05:12:03;;;;;;;3.30;2.20;;;4.80;1.00;;;;;;5101452;28;20440;-60
2022/02/25 05:20:15;;;;;;;2.33;1.83;;;4.80;1.00;;;;;;5100145;28;20929;-63
2022/02/25 05:22:42;;;;;;;2.87;2.57;;;4.80;1.00;;;;;;5104797;28;20443;-62
2022/02/25 05:25:08;;;;;;;2.70;2.50;;;;;;;;;;5098297;28;20472;-63
2022/02/25 05:27:33;;;;;;;2.67;2.47;;;4.90;1.00;;;;;;5102837;28;20456;-62
2022/02/25 05:29:59;;;;;;;3.23;2.50;;;4.90;1.00;;;;;;5104071;28;20922;-62
2022/02/25 05:32:25;;;;;;;2.70;2.10;;;;;;;;;;5096454;28;20186;-63
2022/02/25 05:34:51;;;;;;;2.93;2.63;;;;;;;;;;5096835;28;20190;-62
2022/02/25 05:37:16;;;;;;;3.90;2.60;;;5.10;1.00;;;;;;5098171;28;20954;-63
2022/02/25 05:39:42;;;;;;;3.17;2.27;;;5.20;1.00;;;;;;5096437;28;20551;-61
2022/02/25 05:42:08;;;;;;;4.70;3.20;;;5.20;1.00;;;;;;5104703;28;20658;-63
2022/02/25 05:44:34;;;;;;;3.33;2.30;;;;;;;;;;5101687;28;20308;-64
2022/02/25 05:47:00;;;;;;;4.57;3.27;;;5.10;1.00;;;;;;5096238;28;20625;-62
2022/02/25 05:49:25;;;;;;;4.37;2.00;;;5.10;1.00;;;;;;5103377;28;20451;-62
2022/02/25 05:51:51;;;;;;;2.90;2.67;;;;;;;;;;5103093;28;20193;-63
2022/02/25 05:54:17;;;;;;;2.77;2.30;;;5.20;1.00;;;;;;5107939;28;20244;-63
2022/02/25 05:56:43;;;;;;;3.60;2.60;;;;;;;;;;5105170;28;20451;-64
2022/02/25 05:59:09;;;;;;;3.70;2.60;;;5.10;1.00;;;;;;5096910;28;20209;-63
2022/02/25 06:01:34;;;;;;;5.73;2.97;;;5.10;1.00;;;;;;5102223;28;20518;-63
2022/02/25 06:04:00;;;;;;;2.60;2.27;;;5.20;1.00;;;;;;5101555;28;20623;-63
2022/02/25 06:06:26;;;;;;;3.60;2.20;;;;;;;;;;5099217;28;20265;-63
2022/02/25 06:08:52;;;;;;;4.07;2.80;;;5.00;1.00;;;;;;5096409;28;20558;-63
2022/02/25 06:11:18;;;;;;;3.50;3.00;;;;;;;;;;5095471;28;20543;-65
2022/02/25 06:13:43;;;;;;;3.10;2.80;;;5.10;1.00;;;;;;5092249;28;20529;-64
2022/02/25 06:16:09;;;;;;;4.60;2.73;;;5.20;1.00;;;;;;5110842;28;20971;-63
2022/02/25 06:18:37;;;;;;;5.53;2.60;;;5.10;1.00;;;;;;5100377;28;20214;-63
2022/02/25 06:21:05;;;;;;;3.00;2.67;;;5.00;1.00;;;;;;5098012;28;20175;-63
2022/02/25 06:23:31;;;;;;;5.53;2.60;;;4.90;1.00;;;;;;5101759;28;20440;-62
2022/02/25 06:25:58;;;;;;;2.77;2.30;;;;;;;;;;5104253;28;20998;-64
2022/02/25 06:28:24;;;;;;;2.10;1.87;;;;;;;;;;5106960;28;20543;-63
2022/02/25 06:30:49;;;;;;;2.80;2.30;;;5.00;1.00;;;;;;5095718;28;20436;-62
2022/02/25 06:33:15;;;;;;;2.40;2.20;;;;;;;;;;5092704;28;20441;-62
2022/02/25 06:35:41;;;;;;;2.10;1.77;;;5.00;1.00;;;;;;5091235;28;20688;-63
2022/02/25 06:38:07;;;;;;;3.67;2.40;;;4.90;1.00;;;;;;5094709;28;20940;-62
2022/02/25 06:40:33;;;;;;;3.40;2.50;;;;;;;;;;5093076;28;20671;-62
2022/02/25 06:42:58;;;;;;;2.80;2.00;;;5.00;1.00;;;;;;5105201;28;20162;-63
2022/02/25 06:45:24;;;;;;;2.77;1.90;;;;;;;;;;5096549;28;20493;-61
2022/02/25 06:47:50;;;;;;;2.40;2.20;;;4.90;1.00;;;;;;5108020;28;20189;-62
2022/02/25 06:50:17;;;;;;;2.33;1.77;;;5.00;1.00;;;;;;5106258;28;20444;-62
2022/02/25 06:52:43;;;;;;;1.73;1.63;;;5.10;1.00;;;;;;5098614;28;20194;-63
2022/02/25 06:55:10;;;;;;;4.07;2.00;;;5.20;1.00;;;;;;5092981;28;20483;-63
2022/02/25 06:57:36;;;;;;;2.90;1.80;;;5.30;1.00;;;;;;5098184;28;20556;-62
2022/02/25 07:00:03;;;;;;;4.93;2.07;;;5.40;1.00;;;;;;5099126;28;20923;-62
2022/02/25 07:02:29;;;;;;;3.13;1.93;;;5.40;1.00;;;;;;5103895;28;20186;-62
2022/02/25 07:04:55;;;;;;;2.50;1.53;;;;;;;;;;5102249;28;20453;-63
2022/02/25 07:07:21;;;;;;;4.33;2.20;;;;;;;;;;5094900;28;20271;-63
2022/02/25 07:09:47;;;;;;;3.03;1.57;;;5.50;1.00;;;;;;5097312;28;20806;-64
2022/02/25 07:12:13;;;;;;;1.40;1.30;;;5.60;1.00;;;;;;5097091;28;20442;-63
2022/02/25 07:14:38;;;;;;;3.27;1.40;;;5.60;1.00;;;;;;5106146;28;20934;-63
2022/02/25 07:17:04;;;;;;;1.93;1.47;;;5.60;1.00;;;;;;5099546;28;20183;-63
2022/02/25 07:19:30;;;;;;;3.00;1.40;;;5.60;1.00;;;;;;5104449;28;20228;-62
2022/02/25 07:21:55;;;;;;;1.20;1.00;;;5.70;1.00;;;;;;5099775;28;20194;-63
2022/02/25 07:24:21;;;;;;;5.63;2.03;;;5.70;1.00;;;;;;5091943;28;20181;-63
2022/02/25 07:26:46;;;;;;;2.60;1.23;;;5.70;1.00;;;;;;5104795;28;20181;-63
2022/02/25 07:29:12;;;;;;;3.33;1.30;;;5.80;1.00;;;;;;5107002;28;20218;-62
2022/02/25 07:31:38;;;;;;;2.40;1.23;;;5.80;1.00;;;;;;5101874;28;20536;-64
2022/02/25 07:34:04;;;;;;;1.30;1.20;;;5.80;1.00;;;;;;5093506;28;20239;-62
2022/02/25 07:36:30;;;;;;;1.90;1.50;;;5.80;1.00;;;;;;5092016;28;20441;-62
2022/02/25 07:38:56;;;;;;;3.23;1.33;;;5.80;1.00;;;;;;5097604;28;20460;-62
2022/02/25 07:41:22;;;;;;;2.43;1.50;;;;;;;;;;5090716;28;20178;-62
2022/02/25 07:43:48;;;;;;;6.13;1.33;;;5.80;1.00;;;;;;5096395;28;20190;-62
2022/02/25 07:46:13;;;;;;;2.07;1.50;;;5.80;1.00;;;;;;5092493;28;20440;-63
2022/02/25 07:48:39;;;;;;;2.57;0.93;;;5.80;1.00;;;;;;5098727;28;20455;-63
2022/02/25 07:51:05;;;;;;;4.23;1.73;;;5.90;1.00;;;;;;5102123;28;20231;-64
2022/02/25 07:53:33;;;;;;;1.53;1.13;;;6.10;1.00;;;;;;5103029;28;20197;-63
2022/02/25 07:55:58;;;;;;;2.57;1.03;;;6.10;1.00;;;;;;5105287;28;20463;-63
2022/02/25 07:58:24;;;;;;;1.00;0.87;;;6.20;1.00;;;;;;5098956;28;20461;-63
2022/02/25 08:00:50;;;;;;;1.70;1.30;;;;;;;;;;5098541;28;20189;-62
2022/02/25 08:03:15;;;;;;;3.10;1.50;;;6.40;1.00;;;;;;5090734;28;20182;-63
2022/02/25 08:05:41;;;;;;;1.30;1.20;;;6.50;1.00;;;;;;5108246;28;20439;-63
2022/02/25 08:08:07;;;;;;;2.53;1.03;;;6.30;1.00;;;;;;5105124;28;20193;-63
2022/02/25 08:10:33;;;;;;;1.60;1.20;;;;;;;;;;5109695;28;20550;-64
2022/02/25 08:13:00;;;;;;;3.37;1.33;;;6.60;1.00;;;;;;5094480;28;20198;-63
2022/02/25 08:15:26;;;;;;;2.90;1.10;;;6.80;1.00;;;;;;5103217;28;20539;-63
2022/02/25 08:17:51;;;;;;;6.70;2.63;;;6.70;1.00;;;;;;5103415;28;20562;-64
2022/02/25 08:20:17;;;;;;;3.07;1.50;;;;;;;;;;5098513;28;20628;-63
2022/02/25 08:22:43;;;;;;;2.30;1.53;;;6.70;1.00;;;;;;5102831;28;20190;-62
2022/02/25 08:25:09;;;;;;;4.00;1.50;;;6.50;1.00;;;;;;5098739;28;20778;-62
2022/02/25 08:27:35;;;;;;;1.83;1.43;;;6.50;1.00;;;;;;5099595;28;20186;-62
2022/02/25 08:30:04;;;;;;;1.40;1.30;;;6.50;1.00;;;;;;5093913;28;20441;-63
2022/02/25 08:32:30;;;;;;;3.03;2.00;;;6.50;1.00;;;;;;5098672;28;20179;-62
2022/02/25 08:34:55;;;;;;;2.93;1.63;;;6.60;1.00;;;;;;5093384;28;20509;-63
2022/02/25 08:37:21;;;;;;;2.13;1.50;;;;;;;;;;5107773;28;21023;-63
2022/02/25 08:39:47;;;;;;;1.73;1.60;;;6.80;1.00;;;;;;5108813;28;20174;-63
2022/02/25 08:42:12;;;;;;;3.20;1.40;;;6.80;1.00;;;;;;5079511;28;20437;-64
2022/02/25 08:44:38;;;;;;;4.73;2.53;;;6.70;1.00;;;;;;5094624;28;20648;-61
2022/02/25 08:47:04;;;;;;;2.40;2.07;;;;;;;;;;5100788;28;20197;-63
2022/02/25 08:49:30;;;;;;;2.00;1.90;;;6.70;1.00;;;;;;5081535;28;20193;-63
2022/02/25 08:51:55;;;;;;;1.73;1.60;;;6.80;1.00;;;;;;5112795;28;20777;-62
2022/02/25 08:54:21;;;;;;;1.90;1.57;;;6.90;1.00;;;;;;5108450;28;20589;-62
2022/02/25 08:56:46;;;;;;;6.30;2.10;;;6.90;1.00;;;;;;5108639;28;20240;-62
2022/02/25 08:59:12;;;;;;;6.17;1.87;;;6.90;1.00;;;;;;5080825;28;20198;-63
2022/02/25 09:01:38;;;;;;;2.30;2.07;;;;;;;;;;5104291;28;20190;-63
2022/02/25 09:04:04;;;;;;;2.03;1.80;;;;;;;;;;5100091;28;20179;-62
2022/02/25 09:06:30;;;;;;;2.83;1.57;;;7.10;1.00;;;;;;5094979;28;20525;-63
2022/02/25 09:08:57;;;;;;;5.30;1.90;;;7.10;1.00;;;;;;5095941;28;20432;-64
2022/02/25 09:11:23;;;;;;;1.87;1.40;;;7.20;1.00;;;;;;5105804;28;20501;-63
2022/02/25 09:13:49;;;;;;;2.30;1.60;;;7.30;1.00;;;;;;5098342;28;20455;-62
2022/02/25 09:16:15;;;;;;;2.67;2.10;;;7.30;1.00;;;;;;5098093;28;20182;-61
2022/02/25 09:18:40;;;;;;;2.63;1.40;;;7.30;1.00;;;;;;5100986;28;20524;-61
2022/02/25 09:21:06;;;;;;;2.53;1.77;;;;;;;;;;5112369;28;20231;-61
2022/02/25 09:23:32;;;;;;;1.47;1.30;;;6.80;1.00;;;;;;5113237;28;20231;-62
2022/02/25 09:25:59;;;;;;;2.03;1.30;;;6.90;1.00;;;;;;5108595;28;20488;-62
2022/02/25 09:28:25;;;;;;;1.80;1.33;;;;;;;;;;5098777;28;20186;-62
2022/02/25 09:30:51;;;;;;;1.63;1.30;;;7.40;1.00;;;;;;5098226;28;20436;-61
2022/02/25 09:33:17;;;;;;;2.60;1.50;;;;;;;;;;5096779;28;20437;-61
2022/02/25 09:35:44;;;;;;;4.23;1.60;;;;;;;;;;5096073;28;20939;-60
2022/02/25 09:38:09;;;;;;;3.27;1.63;;;7.30;1.00;;;;;;5103796;28;20455;-62
2022/02/25 09:40:37;;;;;;;2.03;1.40;;;7.20;1.00;;;;;;5101237;28;21011;-61
2022/02/25 09:43:03;;;;;;;2.23;1.83;;;7.20;1.00;;;;;;5093173;28;20555;-61
2022/02/25 09:45:29;;;;;;;4.37;1.63;;;7.10;1.00;;;;;;5092845;28;20523;-61
2022/02/25 09:47:54;;;;;;;2.57;1.33;;;7.20;1.00;;;;;;5108311;28;20584;-62
2022/02/25 09:50:22;;;;;;;3.33;1.30;;;7.50;1.00;;;;;;5112926;28;20194;-62
2022/02/25 09:52:48;;;;;;;2.80;1.50;;;7.60;1.00;;;;;;5112191;28;20209;-62
2022/02/25 09:55:26;;;;;;;2.00;1.30;;;7.60;1.00;;;;;;5106641;28;20467;-62
2022/02/25 09:57:52;;;;;;;2.77;1.30;;;7.80;1.00;;;;;;5107936;28;20489;-62
2022/02/25 10:00:18;;;;;;;3.43;1.60;;;7.70;1.00;;;;;;5100054;28;20500;-62
2022/02/25 10:02:52;;;;;;;2.20;1.30;;;7.50;1.00;;;;;;5110009;28;20496;-61
2022/02/25 10:05:21;;;;;;;4.10;1.63;;;7.40;1.00;;;;;;5108636;28;20530;-61
2022/02/25 10:07:47;;;;;;;3.13;1.53;;;7.80;1.00;;;;;;5100547;28;20475;-64
2022/02/25 10:10:15;;;;;;;5.50;1.87;;;8.00;1.00;;;;;;5109282;28;20562;-62
2022/02/25 10:12:55;;;;;;;2.07;1.47;;;8.00;1.00;;;;;;5107866;28;20754;-62
2022/02/25 10:15:29;;;;;;;4.10;2.10;;;7.80;1.00;;;;;;5099449;28;20573;-62
2022/02/25 10:18:06;;;;;;;2.93;1.50;;;7.70;1.00;;;;;;5094573;28;20506;-62
2022/02/25 10:20:33;;;;;;;1.90;1.40;;;7.90;1.00;;;;;;5110833;28;20448;-62
2022/02/25 10:22:59;;;;;;;4.33;1.77;;;8.00;1.00;;;;;;5097022;28;20466;-62
2022/02/25 10:25:32;;;;;;;3.13;1.40;;;8.00;1.00;;;;;;5109735;28;21008;-62
2022/02/25 10:27:58;;;;;;;7.53;1.63;;;8.00;1.00;;;;;;5104441;28;20426;-63
2022/02/25 10:30:24;;;;;;;3.93;2.00;;;;;;;;;;5101680;28;20436;-64
2022/02/25 10:32:52;;;;;;;3.93;1.10;;;7.90;1.00;;;;;;5094971;28;20309;-65
2022/02/25 10:35:19;;;;;;;2.30;1.50;;;8.00;1.00;;;;;;5095649;28;20974;-65
2022/02/25 10:37:59;;;;;;;3.70;1.57;;;8.20;1.00;;;;;;5094211;28;20475;-65
2022/02/25 10:40:25;;;;;;;3.23;1.90;;;;;;;;;;5092296;28;20452;-65
2022/02/25 10:42:51;;;;;;;2.83;1.43;;;8.30;1.00;;;;;;5097307;28;20439;-64
2022/02/25 10:45:32;;;;;;;3.33;1.40;;;8.40;1.00;;;;;;5091521;28;20793;-65
2022/02/25 10:48:00;;;;;;;3.00;1.40;;;8.60;1.00;;;;;;5096446;28;20431;-65
2022/02/25 10:50:27;;;;;;;3.47;1.80;;;8.70;1.00;;;;;;5096481;28;20421;-65
2022/02/25 10:52:53;;;;;;;1.53;1.43;;;;;;;;;;5057999;28;20448;-65
2022/02/25 10:55:22;;;;;;;4.00;1.23;;;9.20;1.00;;;;;;5107702;28;20499;-65
2022/02/25 10:57:48;;;;;;;2.10;1.30;;;9.40;1.00;;;;;;5101946;28;20975;-65
2022/02/25 11:00:15;;;;;;;2.80;1.40;;;9.40;1.00;;;;;;5091263;28;20433;-64
2022/02/25 11:02:47;;;;;;;3.87;1.33;;;9.40;1.00;;;;;;5091308;28;20930;-65
2022/02/25 11:05:33;;;;;;;1.20;1.10;;;8.70;1.00;;;;;;5090626;28;20437;-65
2022/02/25 11:08:01;;;;;;;1.63;1.27;;;8.80;1.00;;;;;;5095354;28;20471;-65
2022/02/25 11:10:32;;;;;;;4.77;1.70;;;9.00;1.00;;;;;;5109682;28;20456;-64
2022/02/25 11:13:05;;;;;;;1.37;1.20;;;9.20;1.00;;;;;;5097199;28;20842;-65
2022/02/25 11:15:34;;;;;;;1.80;1.43;;;9.30;1.00;;;;;;5073309;28;20455;-63
2022/02/25 11:18:00;;;;;;;1.70;1.50;;;;;;;;;;5095468;28;20465;-63
2022/02/25 11:20:29;;;;;;;4.80;1.60;;;8.80;1.00;;;;;;5091391;28;20451;-63
2022/02/25 11:23:01;;;;;;;2.33;1.40;;;8.60;1.00;;;;;;5092626;28;20515;-64
2022/02/25 11:25:28;;;;;;;2.70;1.27;;;8.20;1.00;;;;;;5107882;28;20514;-64
2022/02/25 11:27:55;;;;;;;4.30;1.40;;;8.30;1.00;;;;;;5094505;28;20444;-64
2022/02/25 11:30:30;;;;;;;4.23;1.60;;;8.50;1.00;;;;;;5100715;28;20441;-64
2022/02/25 11:33:08;;;;;;;2.17;1.10;;;8.50;1.00;;;;;;5099343;28;20719;-65
2022/02/25 11:35:38;;;;;;;3.33;1.33;;;8.80;1.00;;;;;;5103359;28;20473;-64
2022/02/25 11:38:10;;;;;;;3.67;1.23;;;8.70;1.00;;;;;;5105219;28;20514;-65
2022/02/25 11:41:00;;;;;;;1.40;1.20;;;8.70;1.00;;;;;;5091620;28;20898;-65
2022/02/25 11:43:39;;;;;;;4.87;1.60;;;8.80;1.00;;;;;;5106673;28;20952;-66
2022/02/25 11:46:11;;;;;;;2.57;1.60;;;8.80;1.00;;;;;;5097831;28;20447;-64
2022/02/25 11:48:44;;;;;;;3.43;1.77;;;9.00;1.00;;;;;;5097628;28;20444;-65
2022/02/25 11:51:57;;;;;;;2.80;1.40;;;8.90;1.00;;;;;;5095917;28;20449;-65
2022/02/25 11:57:03;;;;;;;1.87;1.73;;;9.50;1.00;;;;;;5102392;28;20428;-64
2022/02/25 11:59:32;;;;;;;3.33;1.17;;;9.80;1.00;;;;;;5101630;28;20436;-65
2022/02/25 12:02:12;;;;;;;4.03;2.03;;;10.20;1.00;;;;;;5100939;28;20867;-65
2022/02/25 12:04:40;;;;;;;4.20;1.47;;;10.60;1.00;;;;;;5099071;28;20450;-64
2022/02/25 12:07:19;;;;;;;6.47;1.63;;;10.50;1.00;;;;;;5105243;28;20445;-65
2022/02/25 12:09:55;;;;;;;2.00;1.37;;;10.10;1.00;;;;;;5091841;28;20471;-64
2022/02/25 12:12:24;;;;;;;1.87;1.53;;;10.00;1.00;;;;;;5108887;28;20443;-63
2022/02/25 12:15:16;;;;;;;2.37;1.03;;;10.00;1.00;;;;;;5091763;28;20449;-63
2022/02/25 12:17:55;;;;;;;5.67;1.50;;;9.50;1.00;;;;;;5106860;28;20463;-63
2022/02/25 12:20:40;;;;;;;5.13;1.33;;;9.30;1.00;;;;;;5113333;28;20435;-64
2022/02/25 12:23:08;;;;;;;4.70;1.27;;;9.50;1.00;;;;;;5102476;28;20444;-64
2022/02/25 12:25:40;;;;;;;0.73;0.73;;;9.50;1.00;;;;;;5111117;28;20443;-66
2022/02/25 12:28:31;;;;;;;2.43;1.03;;;9.90;1.00;;;;;;5081550;28;20520;-65
2022/02/25 12:31:16;;;;;;;2.27;1.30;;;10.10;1.00;;;;;;5111443;28;20941;-65
2022/02/25 12:33:44;;;;;;;2.73;1.30;;;10.10;1.00;;;;;;5105270;28;20429;-65
2022/02/25 12:36:15;;;;;;;4.17;1.53;;;9.80;1.00;;;;;;5079070;28;20439;-64
2022/02/25 12:38:41;;;;;;;3.00;1.40;;;9.80;1.00;;;;;;5104620;28;20498;-64
2022/02/25 12:41:14;;;;;;;2.50;1.07;;;10.00;1.00;;;;;;5110370;28;20463;-64
2022/02/25 12:44:06;;;;;;;1.53;0.83;;;9.90;1.00;;;;;;5100550;28;20220;-65
2022/02/25 12:46:35;;;;;;;1.50;1.10;;;9.90;1.00;;;;;;5087397;28;20906;-64
2022/02/25 12:49:02;;;;;;;2.33;0.90;;;10.00;1.00;;;;;;5078054;28;20440;-64
2022/02/25 12:51:28;;;;;;;2.20;1.17;;;9.80;1.00;;;;;;5101694;28;20470;-64
2022/02/25 12:54:02;;;;;;;2.13;1.00;;;9.70;1.00;;;;;;5106266;28;20480;-64
2022/02/25 12:56:34;;;;;;;2.50;1.00;;;9.50;1.00;;;;;;5097191;28;20455;-65
2022/02/25 12:59:09;;;;;;;5.77;1.73;;;9.30;1.00;;;;;;5113252;28;20519;-64
2022/02/25 13:01:37;;;;;;;1.97;1.17;;;9.20;1.00;;;;;;5113218;28;21059;-63
2022/02/25 13:04:08;;;;;;;2.30;0.90;;;9.20;1.00;;;;;;5113719;28;20424;-63
2022/02/25 13:06:36;;;;;;;2.17;1.20;;;9.20;1.00;;;;;;5113707;28;20438;-64
2022/02/25 13:09:05;;;;;;;1.10;0.80;;;9.40;1.00;;;;;;5104465;28;20444;-63
2022/02/25 13:11:31;;;;;;;2.60;1.13;;;9.60;1.00;;;;;;5093409;28;20429;-64
2022/02/25 13:14:15;;;;;;;4.70;1.43;;;9.90;1.00;;;;;;5102320;28;20488;-64
2022/02/25 13:17:02;;;;;;;5.10;1.10;;;10.10;1.00;;;;;;5113524;28;20647;-64
2022/02/25 13:19:31;;;;;;;3.13;1.20;;;10.20;1.00;;;;;;5074954;28;20464;-63
2022/02/25 13:22:05;;;;;;;1.57;0.70;;;10.00;1.00;;;;;;5093192;28;20523;-64
2022/02/25 13:24:32;;;;;;;1.90;0.70;;;9.70;1.00;;;;;;5112959;28;21391;-65
2022/02/25 13:27:00;;;;;;;1.80;1.00;;;9.90;1.00;;;;;;5113537;28;20785;-63
2022/02/25 13:29:31;;;;;;;1.07;0.70;;;10.00;1.00;;;;;;5094322;28;20443;-64
2022/02/25 13:32:05;;;;;;;2.63;1.30;;;9.70;1.00;;;;;;5096972;28;20433;-64